LCJ weather

Łódź Władysław Reymont Airport
Łódź, Lodz, Poland

Public forecast

Using degrees Celsius for public forecast. Weather courtesy of forecast.io.

METAR (pilot weather report)

Retrieved 2019/03/24 15:30 UTC (8 minutes ago):

EPLL 241530Z 27008KT 250V320 CAVOK 11/M03 Q1019

TAF (pilot weather forecast)

Retrieved 2019/03/24 12:00 UTC (4 hours ago):

TAF EPLL 241130Z 2412/2512 29010KT CAVOK BECMG 2416/2418 VRB02KT TEMPO 2509/2512 4500 SHRA BKN014CB